createdAt,value
2022-08-10T00:00:15.721Z,102409.53
2022-08-10T00:03:19.768Z,102409.22
2022-08-10T00:06:22.624Z,102411.69
2022-08-10T00:09:25.744Z,102413.06
2022-08-10T00:12:53.137Z,102411.94
2022-08-10T00:15:53.739Z,102415.81
2022-08-10T00:18:58.802Z,102414.69
2022-08-10T00:22:01.721Z,102409.63
2022-08-10T00:25:05.173Z,102408.22
2022-08-10T00:28:08.781Z,102402.31
2022-08-10T00:31:11.410Z,102403.81
2022-08-10T00:34:15.572Z,102400.44
2022-08-10T00:37:19.700Z,102404.00
2022-08-10T00:40:37.363Z,102396.66
2022-08-10T00:43:40.638Z,102391.66
2022-08-10T00:46:43.473Z,102385.25
2022-08-10T00:49:47.921Z,102393.59
2022-08-10T00:52:51.852Z,102380.81
2022-08-10T00:57:00.894Z,102382.16
2022-08-10T00:59:18.563Z,102391.81
2022-08-10T01:02:21.235Z,102386.75
2022-08-10T01:05:25.930Z,102387.28
2022-08-10T01:08:32.950Z,102377.97
2022-08-10T01:12:38.710Z,102383.97
2022-08-10T01:15:15.329Z,102383.50
2022-08-10T01:18:32.106Z,102370.91
2022-08-10T01:21:57.384Z,102387.78
2022-08-10T01:25:14.676Z,102387.66
2022-08-10T01:28:31.781Z,102385.41
2022-08-10T01:31:47.831Z,102387.00
2022-08-10T01:34:52.851Z,102379.75
2022-08-10T01:38:03.425Z,102385.03
2022-08-10T01:41:09.876Z,102384.50
2022-08-10T01:44:15.831Z,102381.41
2022-08-10T01:47:41.864Z,102385.28
2022-08-10T01:50:58.892Z,102383.28
2022-08-10T01:54:10.652Z,102378.53
2022-08-10T01:57:17.896Z,102365.75
2022-08-10T02:00:22.396Z,102374.03
2022-08-10T02:03:27.858Z,102375.28
2022-08-10T02:06:33.271Z,102374.47
2022-08-10T02:09:40.325Z,102372.53
2022-08-10T02:12:44.751Z,102368.66
2022-08-10T02:16:02.062Z,102376.13
2022-08-10T02:19:08.512Z,102374.19
2022-08-10T02:22:45.926Z,102371.94
2022-08-10T02:25:43.779Z,102370.81
2022-08-10T02:28:47.385Z,102364.06
2022-08-10T02:31:51.511Z,102375.94
2022-08-10T02:34:59.313Z,102377.81
2022-08-10T02:38:06.091Z,102368.91
2022-08-10T02:45:14.974Z,102371.34
2022-08-10T02:45:23.255Z,102370.84
2022-08-10T02:48:13.435Z,102362.78
2022-08-10T02:52:08.078Z,102366.06
2022-08-10T02:54:52.150Z,102367.91
2022-08-10T02:58:12.744Z,102367.09
2022-08-10T03:01:25.803Z,102369.97
2022-08-10T03:04:57.296Z,102376.91
2022-08-10T03:08:02.933Z,102368.38
2022-08-10T03:11:08.478Z,102373.38
2022-08-10T03:14:12.246Z,102370.97
2022-08-10T03:17:17.517Z,102375.75
2022-08-10T03:20:38.342Z,102371.06
2022-08-10T03:23:48.802Z,102371.22
2022-08-10T03:26:52.889Z,102377.25
2022-08-10T03:30:29.511Z,102370.41
2022-08-10T03:33:21.628Z,102373.28
2022-08-10T03:36:40.447Z,102373.84
2022-08-10T03:39:48.386Z,102380.34
2022-08-10T03:42:55.159Z,102380.38
2022-08-10T03:46:02.185Z,102367.56
2022-08-10T03:49:07.007Z,102382.09
2022-08-10T03:52:10.734Z,102383.44
2022-08-10T03:56:27.166Z,102374.88
2022-08-10T03:58:38.450Z,102382.34
2022-08-10T04:02:45.760Z,102379.31
2022-08-10T04:05:06.207Z,102386.09
2022-08-10T04:08:09.248Z,102391.94
2022-08-10T04:11:14.115Z,102396.06
2022-08-10T04:14:38.191Z,102397.31
2022-08-10T04:17:59.507Z,102397.81
2022-08-10T04:21:08.337Z,102396.91
2022-08-10T04:24:24.781Z,102409.06
2022-08-10T04:27:34.563Z,102399.28
2022-08-10T04:30:38.189Z,102398.44
2022-08-10T04:33:44.369Z,102393.63
2022-08-10T04:36:48.391Z,102399.41
2022-08-10T04:39:51.658Z,102399.88
2022-08-10T04:43:02.326Z,102405.34
2022-08-10T04:46:42.780Z,102406.72
2022-08-10T04:49:54.495Z,102399.47
2022-08-10T04:52:51.817Z,102404.06
2022-08-10T04:55:54.474Z,102395.31
2022-08-10T04:58:58.603Z,102398.44
2022-08-10T05:02:30.402Z,102408.06
2022-08-10T05:05:23.980Z,102411.59
2022-08-10T05:08:27.144Z,102411.63
2022-08-10T05:11:30.132Z,102412.22
2022-08-10T05:14:34.367Z,102412.16
2022-08-10T05:17:38.060Z,102417.84
2022-08-10T05:20:40.744Z,102415.03
2022-08-10T05:23:43.376Z,102415.16
2022-08-10T05:27:00.590Z,102415.34
2022-08-10T05:30:13.765Z,102418.97
2022-08-10T05:33:16.595Z,102417.72
2022-08-10T05:36:19.696Z,102421.19
2022-08-10T05:39:30.569Z,102418.28
2022-08-10T05:42:35.602Z,102419.66
2022-08-10T05:46:18.717Z,102428.03
2022-08-10T05:49:02.602Z,102424.84
2022-08-10T05:52:06.090Z,102431.25
2022-08-10T05:55:10.105Z,102425.81
2022-08-10T05:58:12.872Z,102425.88
2022-08-10T06:01:20.077Z,102429.50
2022-08-10T06:04:31.501Z,102423.75
2022-08-10T06:07:38.466Z,102427.31
2022-08-10T06:12:23.787Z,102427.16
2022-08-10T06:14:28.358Z,102418.47
2022-08-10T06:17:33.316Z,102421.31
2022-08-10T06:20:36.583Z,102421.66
2022-08-10T06:23:40.016Z,102429.25
2022-08-10T06:26:42.930Z,102431.16
2022-08-10T06:29:46.748Z,102428.72
2022-08-10T06:32:52.453Z,102422.44
2022-08-10T06:35:57.453Z,102427.13
2022-08-10T06:39:22.970Z,102425.66
2022-08-10T06:42:29.152Z,102419.78
2022-08-10T06:45:37.118Z,102417.84
2022-08-10T06:48:48.095Z,102417.34
2022-08-10T06:51:57.224Z,102425.13
2022-08-10T06:55:05.337Z,102408.72
2022-08-10T06:58:11.823Z,102419.84
2022-08-10T07:01:21.001Z,102413.41
2022-08-10T07:04:32.743Z,102417.56
2022-08-10T07:07:39.945Z,102411.16
2022-08-10T07:10:46.285Z,102407.59
2022-08-10T07:14:15.941Z,102405.69
2022-08-10T07:17:15.320Z,102408.66
2022-08-10T07:20:22.042Z,102396.28
2022-08-10T07:23:59.769Z,102400.81
2022-08-10T07:26:51.526Z,102396.84
2022-08-10T07:29:55.136Z,102411.47
2022-08-10T07:32:59.775Z,102403.66
2022-08-10T07:36:05.041Z,102397.56
2022-08-10T07:39:09.995Z,102404.28
2022-08-10T07:42:14.886Z,102400.75
2022-08-10T07:45:18.068Z,102412.88
2022-08-10T07:48:26.004Z,102411.22
2022-08-10T07:51:33.098Z,102412.69
2022-08-10T07:54:41.575Z,102408.69
2022-08-10T07:57:47.796Z,102410.97
2022-08-10T08:00:55.084Z,102404.63
2022-08-10T08:04:10.752Z,102402.81
2022-08-10T08:07:20.775Z,102399.09
2022-08-10T08:10:26.847Z,102406.69
2022-08-10T08:13:31.266Z,102401.81
2022-08-10T08:16:36.055Z,102396.63
2022-08-10T08:19:45.862Z,102398.91
2022-08-10T08:24:09.602Z,102403.84
2022-08-10T08:26:15.733Z,102394.44
2022-08-10T08:29:20.511Z,102392.97
2022-08-10T08:32:25.783Z,102386.44
2022-08-10T08:35:28.541Z,102381.50
2022-08-10T08:38:35.056Z,102383.69
2022-08-10T08:41:54.751Z,102380.97
2022-08-10T08:45:10.035Z,102376.88
2022-08-10T08:48:28.630Z,102379.56
2022-08-10T08:52:07.181Z,102374.69
2022-08-10T08:56:03.574Z,102371.66
2022-08-10T08:59:04.131Z,102368.28
2022-08-10T09:02:19.099Z,102376.66
2022-08-10T09:05:32.702Z,102374.78
2022-08-10T09:09:11.402Z,102369.09
2022-08-10T09:12:37.008Z,102363.41
2022-08-10T09:15:47.818Z,102363.44
2022-08-10T09:18:54.412Z,102359.03
2022-08-10T09:22:17.316Z,102360.94
2022-08-10T09:25:24.515Z,102363.41
2022-08-10T09:28:37.239Z,102360.28
2022-08-10T09:35:39.226Z,102367.34
2022-08-10T09:38:49.794Z,102355.53
2022-08-10T09:42:02.257Z,102355.06
2022-08-10T09:45:13.586Z,102350.53
2022-08-10T09:48:27.055Z,102337.59
2022-08-10T09:51:46.422Z,102340.97
2022-08-10T09:55:01.594Z,102342.44
2022-08-10T09:58:28.355Z,102335.13
2022-08-10T10:02:03.919Z,102339.78
2022-08-10T10:05:13.703Z,102334.63
2022-08-10T10:08:25.535Z,102334.03
2022-08-10T10:11:37.649Z,102328.75
2022-08-10T10:15:25.200Z,102328.94
2022-08-10T10:18:43.710Z,102325.38
2022-08-10T10:21:54.729Z,102320.13
2022-08-10T10:25:19.816Z,102315.06
2022-08-10T10:29:19.743Z,102305.50
2022-08-10T10:32:09.539Z,102310.72
2022-08-10T10:35:23.596Z,102302.44
2022-08-10T10:38:32.323Z,102308.88
2022-08-10T10:41:56.243Z,102295.81
2022-08-10T10:45:17.331Z,102294.06
2022-08-10T10:48:29.007Z,102294.44
2022-08-10T10:51:39.050Z,102288.06
2022-08-10T10:54:51.708Z,102290.59
2022-08-10T10:58:01.330Z,102294.75
2022-08-10T11:01:12.280Z,102292.44
2022-08-10T11:04:24.306Z,102292.22
2022-08-10T11:07:33.894Z,102290.56
2022-08-10T11:10:47.502Z,102288.31
2022-08-10T11:14:24.408Z,102278.56
2022-08-10T11:17:33.285Z,102287.97
2022-08-10T11:20:42.234Z,102282.81
2022-08-10T11:24:47.263Z,102280.16
2022-08-10T11:27:22.530Z,102272.97
2022-08-10T11:30:32.336Z,102263.88
2022-08-10T11:34:11.285Z,102273.72
2022-08-10T11:37:19.700Z,102268.91
2022-08-10T11:40:30.946Z,102263.91
2022-08-10T11:43:39.061Z,102257.47
2022-08-10T11:46:49.826Z,102252.06
2022-08-10T11:49:56.823Z,102257.00
2022-08-10T11:53:09.824Z,102246.66
2022-08-10T11:56:19.621Z,102250.88
2022-08-10T11:59:43.474Z,102251.97
2022-08-10T12:02:51.646Z,102235.25
2022-08-10T12:05:56.729Z,102239.25
2022-08-10T12:10:11.564Z,102241.72
2022-08-10T12:12:29.721Z,102240.69
2022-08-10T12:15:37.614Z,102234.94
2022-08-10T12:18:46.184Z,102239.09
2022-08-10T12:21:55.463Z,102241.28
2022-08-10T12:25:01.486Z,102231.59
2022-08-10T12:28:12.141Z,102231.44
2022-08-10T12:31:17.625Z,102234.13
2022-08-10T12:34:30.448Z,102227.34
2022-08-10T12:37:39.910Z,102229.06
2022-08-10T12:40:48.450Z,102223.06
2022-08-10T12:44:07.187Z,102227.72
2022-08-10T12:47:21.307Z,102218.97
2022-08-10T12:50:33.836Z,102216.72
2022-08-10T12:53:48.753Z,102208.47
2022-08-10T12:56:58.261Z,102201.91
2022-08-10T13:00:03.543Z,102207.53
2022-08-10T13:03:08.921Z,102200.38
2022-08-10T13:06:12.357Z,102194.63
2022-08-10T13:09:15.698Z,102199.94
2022-08-10T13:12:36.582Z,102189.81
2022-08-10T13:15:50.776Z,102183.00
2022-08-10T13:18:59.473Z,102179.03
2022-08-10T13:22:03.807Z,102176.94
2022-08-10T13:25:09.409Z,102169.69
2022-08-10T13:28:37.717Z,102175.16
2022-08-10T13:32:09.941Z,102171.03
2022-08-10T13:35:11.821Z,102169.72
2022-08-10T13:38:20.821Z,102158.72
2022-08-10T13:41:27.840Z,102150.41
2022-08-10T13:44:33.041Z,102158.00
2022-08-10T13:47:48.469Z,102152.09
2022-08-10T13:50:58.609Z,102138.28
2022-08-10T13:54:02.991Z,102141.84
2022-08-10T13:57:06.870Z,102126.84
2022-08-10T14:00:37.497Z,102133.56
2022-08-10T14:03:39.225Z,102125.78
2022-08-10T14:06:43.250Z,102138.81
2022-08-10T14:09:47.815Z,102125.06
2022-08-10T14:12:51.880Z,102118.41
2022-08-10T14:15:57.607Z,102120.50
2022-08-10T14:19:06.082Z,102115.63
2022-08-10T14:22:08.979Z,102115.41
2022-08-10T14:25:14.262Z,102112.94
2022-08-10T14:28:19.457Z,102112.75
2022-08-10T14:31:25.075Z,102109.97
2022-08-10T14:36:05.017Z,102110.81
2022-08-10T14:37:58.447Z,102107.38
2022-08-10T14:41:03.513Z,102100.28
2022-08-10T14:44:09.021Z,102106.75
2022-08-10T14:47:52.532Z,102100.44
2022-08-10T14:50:38.928Z,102100.28
2022-08-10T14:54:02.037Z,102100.69
2022-08-10T14:57:11.250Z,102099.31
2022-08-10T15:00:39.091Z,102095.13
2022-08-10T15:04:01.431Z,102098.59
2022-08-10T15:07:12.690Z,102092.47
2022-08-10T15:10:21.749Z,102079.63
2022-08-10T15:13:33.831Z,102085.75
2022-08-10T15:16:37.900Z,102077.63
2022-08-10T15:20:04.111Z,102070.09
2022-08-10T15:23:30.723Z,102076.09
2022-08-10T15:26:37.385Z,102069.41
2022-08-10T15:29:56.956Z,102067.53
2022-08-10T15:33:57.001Z,102062.13
2022-08-10T15:37:39.628Z,102066.34
2022-08-10T15:40:51.211Z,102059.38
2022-08-10T15:43:55.894Z,102059.44
2022-08-10T15:47:02.625Z,102060.34
2022-08-10T15:50:08.546Z,102063.97
2022-08-10T15:53:16.780Z,102066.28
2022-08-10T15:56:31.784Z,102059.84
2022-08-10T15:59:41.496Z,102053.59
2022-08-10T16:02:51.385Z,102056.44
2022-08-10T16:06:00.615Z,102056.22
2022-08-10T16:10:22.410Z,102059.72
2022-08-10T16:12:39.097Z,102057.84
2022-08-10T16:15:43.250Z,102055.72
2022-08-10T16:18:47.321Z,102042.06
2022-08-10T16:21:56.919Z,102054.19
2022-08-10T16:25:01.745Z,102045.94
2022-08-10T16:28:07.800Z,102053.81
2022-08-10T16:31:20.488Z,102046.19
2022-08-10T16:34:24.524Z,102046.19
2022-08-10T16:37:56.667Z,102045.31
2022-08-10T16:40:58.480Z,102046.72
2022-08-10T16:44:05.226Z,102043.53
2022-08-10T16:47:09.348Z,102033.16
2022-08-10T16:50:15.616Z,102031.88
2022-08-10T16:53:20.936Z,102031.75
2022-08-10T16:56:29.036Z,102035.34
2022-08-10T16:59:36.471Z,102034.63
2022-08-10T17:02:41.835Z,102033.38
2022-08-10T17:06:03.389Z,102031.72
2022-08-10T17:09:18.489Z,102031.16
2022-08-10T17:12:27.013Z,102022.50
2022-08-10T17:15:31.783Z,102026.59
2022-08-10T17:18:38.696Z,102025.97
2022-08-10T17:21:51.841Z,102028.53
2022-08-10T17:25:01.231Z,102032.03
2022-08-10T17:28:09.567Z,102031.28
2022-08-10T17:31:23.738Z,102031.81
2022-08-10T17:34:47.887Z,102039.22
2022-08-10T17:37:57.443Z,102034.44
2022-08-10T17:41:05.875Z,102027.91
2022-08-10T17:44:10.301Z,102027.91
2022-08-10T17:47:15.866Z,102031.44
2022-08-10T17:50:23.426Z,102036.47
2022-08-10T17:53:30.410Z,102030.03
2022-08-10T17:56:35.604Z,102032.25
2022-08-10T17:59:41.792Z,102026.13
2022-08-10T18:02:49.655Z,102028.34
2022-08-10T18:05:56.252Z,102029.03
2022-08-10T18:09:03.260Z,102030.56
2022-08-10T18:12:18.365Z,102029.75
2022-08-10T18:15:25.554Z,102029.41
2022-08-10T18:18:31.600Z,102033.72
2022-08-10T18:21:38.865Z,102036.91
2022-08-10T18:24:46.511Z,102043.84
2022-08-10T18:28:01.062Z,102036.91
2022-08-10T18:31:09.635Z,102036.50
2022-08-10T18:34:19.889Z,102041.81
2022-08-10T18:37:25.023Z,102047.41
2022-08-10T18:40:36.409Z,102044.72
2022-08-10T18:44:05.602Z,102042.38
2022-08-10T18:47:15.916Z,102039.19
2022-08-10T18:50:24.404Z,102062.25
2022-08-10T18:53:34.200Z,102055.19
2022-08-10T18:56:49.149Z,102063.72
2022-08-10T19:00:08.079Z,102065.94
2022-08-10T19:03:53.601Z,102060.16
2022-08-10T19:07:16.799Z,102067.97
2022-08-10T19:10:36.841Z,102061.16
2022-08-10T19:13:51.153Z,102061.91
2022-08-10T19:17:02.710Z,102059.03
2022-08-10T19:20:14.415Z,102068.03
2022-08-10T19:23:43.113Z,102078.03
2022-08-10T19:26:52.889Z,102061.53
2022-08-10T19:30:12.126Z,102065.91
2022-08-10T19:33:26.745Z,102071.31
2022-08-10T19:36:41.639Z,102068.09
2022-08-10T19:39:57.619Z,102072.97
2022-08-10T19:43:09.237Z,102077.25
2022-08-10T19:46:27.455Z,102085.25
2022-08-10T19:49:40.127Z,102097.59
2022-08-10T19:52:50.594Z,102100.50
2022-08-10T19:56:24.352Z,102100.28
2022-08-10T20:00:15.003Z,102101.66
2022-08-10T20:03:12.431Z,102097.78
2022-08-10T20:06:20.766Z,102100.81
2022-08-10T20:09:31.687Z,102107.75
2022-08-10T20:12:47.160Z,102106.94
2022-08-10T20:15:58.409Z,102102.56
2022-08-10T20:19:07.579Z,102096.03
2022-08-10T20:22:11.394Z,102109.50
2022-08-10T20:25:19.948Z,102101.94
2022-08-10T20:28:32.768Z,102108.41
2022-08-10T20:31:42.019Z,102115.97
2022-08-10T20:34:49.682Z,102108.41
2022-08-10T20:38:04.679Z,102109.91
2022-08-10T20:41:17.594Z,102104.56
2022-08-10T20:44:36.733Z,102121.44
2022-08-10T20:47:57.572Z,102117.81
2022-08-10T20:51:03.447Z,102119.44
2022-08-10T20:54:09.823Z,102119.03
2022-08-10T20:57:56.189Z,102130.63
2022-08-10T21:01:16.965Z,102123.19
2022-08-10T21:04:41.076Z,102124.25
2022-08-10T21:08:02.572Z,102121.25
2022-08-10T21:11:12.568Z,102111.94
2022-08-10T21:14:29.581Z,102117.06
2022-08-10T21:17:55.007Z,102105.50
2022-08-10T21:21:08.396Z,102118.22
2022-08-10T21:24:20.042Z,102108.16
2022-08-10T21:27:47.136Z,102105.16
2022-08-10T21:31:26.803Z,102106.81
2022-08-10T21:35:04.700Z,102111.94
2022-08-10T21:38:16.744Z,102112.53
2022-08-10T21:41:57.587Z,102108.66
2022-08-10T21:45:58.769Z,102110.81
2022-08-10T21:49:15.266Z,102113.34
2022-08-10T21:52:53.370Z,102115.22
2022-08-10T21:56:22.937Z,102109.06
2022-08-10T21:59:56.124Z,102109.19
2022-08-10T22:03:18.721Z,102109.19
2022-08-10T22:06:52.632Z,102108.19
2022-08-10T22:10:16.741Z,102103.81
2022-08-10T22:13:37.514Z,102112.84
2022-08-10T22:17:04.974Z,102112.28
2022-08-10T22:20:32.324Z,102101.16
2022-08-10T22:24:16.727Z,102109.44
2022-08-10T22:27:48.580Z,102107.13
2022-08-10T22:31:31.868Z,102097.44
2022-08-10T22:35:10.856Z,102093.03
2022-08-10T22:38:44.329Z,102100.34
2022-08-10T22:42:09.879Z,102099.34
2022-08-10T22:45:35.538Z,102099.09
2022-08-10T22:49:00.155Z,102099.13
2022-08-10T22:52:09.601Z,102105.00
2022-08-10T22:55:35.004Z,102103.34
2022-08-10T22:58:42.990Z,102100.84
2022-08-10T23:02:08.117Z,102104.28
2022-08-10T23:05:14.196Z,102096.66
2022-08-10T23:08:30.282Z,102093.59
2022-08-10T23:11:37.282Z,102095.00
2022-08-10T23:14:45.209Z,102091.97
2022-08-10T23:18:25.418Z,102096.75
2022-08-10T23:22:03.099Z,102088.13
2022-08-10T23:25:07.086Z,102088.47
2022-08-10T23:28:13.222Z,102089.91
2022-08-10T23:31:58.368Z,102089.44
2022-08-10T23:36:31.880Z,102086.44
2022-08-10T23:38:13.512Z,102096.50
2022-08-10T23:41:17.369Z,102082.69
2022-08-10T23:44:22.077Z,102086.06
2022-08-10T23:47:27.310Z,102085.81
2022-08-10T23:50:33.578Z,102081.09
2022-08-10T23:53:39.652Z,102078.59
2022-08-10T23:56:47.478Z,102080.63
2022-08-10T23:59:53.901Z,102089.88
